กรุงเทพมหานคร, ประเทศไทย

06:34 PM ICT วัน ธันวาคม 03, 2016 (GMT +0700)
Bangkok International | | Change Station

Elev 13 ft 13.92 °N, 100.61 °E | Updated 34 minutes ago

Scattered Clouds
มีเมฆคลุมเป็นบางส่วน
84 ฟาเรนไฮน์
Feels Like 90 ฟาเรนไฮน์
N
10
ลม ความผันแปร ลม from ทางทิศเหนือและทิศตะวันตกเฉียงเหนือ

วันนี้
High -- | Low -- ฟาเรนไฮน์
--% Chance of Precip.
Yesterday
High -- | Low -- ฟาเรนไฮน์
Precip. -- นิ้ว
ความดัน 29.89 นิ้ว
ทัศนวิสัย 6.2 ไมล์
เมฆ Few 2500 ft
มีเมฆคลุมเป็นบางส่วน 10000 ft
ดัชนีความร้อน 90 ฟาเรนไฮน์
อุณหภูมิที่อากาศอาจจับตัวเป็นหยาดน้ำค้าง 72 ฟาเรนไฮน์
ความชื้น 66%
Rainfall 0.00 นิ้ว
Snow Depth Not available.
6:26 AM 5:48 PM
เดือนเสี้ยว, 14% visible
METAR VTBD 031100Z 34009KT 310V020 9999 FEW025 SCT100 29/22 Q1012 NOSIG
ความดัน 29.89 นิ้ว
ทัศนวิสัย 6.2 ไมล์
เมฆ Few 2500 ft
มีเมฆคลุมเป็นบางส่วน 10000 ft
ดัชนีความร้อน 90 ฟาเรนไฮน์
อุณหภูมิที่อากาศอาจจับตัวเป็นหยาดน้ำค้าง 72 ฟาเรนไฮน์
ความชื้น 66%
Rainfall 0.00 นิ้ว
Snow Depth Not available.
6:26 AM 5:48 PM
เดือนเสี้ยว, 14% visible
METAR VTBD 031100Z 34009KT 310V020 9999 FEW025 SCT100 29/22 Q1012 NOSIG

10-Day Weather Forecast

No radar image for this location.
×

Almanac

ดาราศาสตร์

Dec. 03, 2016 Rise Set
Actual Time
Civil Twilight
Nautical Twilight
Astronomical Twilight
Moon
Length Of Visible Light
ความยาวของวัน
Tomorrow will be .
, % of the Moon is Illuminated

Today's Extremes

Country Highs Country Lows

Community

WunderPhotos

Upload Photos

1,955,431 photos uploaded!

WunderBlog® & News

Nearby

Air Quality

  Air Quality AQ Index Pollutant
Not available.

Snow Depth

Station Depth Elevation

Earthquake Activity

City Distance Mag. Time & Date
Minimum magnitude displayed is 2.5.

Coastal Water Temperatures

สถานที่ อุณหภูมิ

Stations

Nearby Weather Stations

Station Location Temp ลมหนาว อุณหภูมิที่อากาศอาจจับตัวเป็นหยาดน้ำค้าง ความชื้น ลม Precip. Elev ปรับปรุงล่าสุด Type